sensor_id;sensor_type;location;lat;lon;timestamp;P1;durP1;ratioP1;P2;durP2;ratioP2
79526;SDS011;68974;47.754;-3.364;2024-01-07T00:01:26;11.15;;;5.55;;
79526;SDS011;68974;47.754;-3.364;2024-01-07T00:03:51;10.32;;;4.80;;
79526;SDS011;68974;47.754;-3.364;2024-01-07T00:06:17;11.18;;;5.70;;
79526;SDS011;68974;47.754;-3.364;2024-01-07T00:08:43;9.50;;;4.20;;
79526;SDS011;68974;47.754;-3.364;2024-01-07T00:11:08;12.75;;;5.05;;
79526;SDS011;68974;47.754;-3.364;2024-01-07T00:13:33;8.48;;;4.20;;
79526;SDS011;68974;47.754;-3.364;2024-01-07T00:15:59;8.02;;;4.13;;
79526;SDS011;68974;47.754;-3.364;2024-01-07T00:18:25;9.23;;;4.25;;
79526;SDS011;68974;47.754;-3.364;2024-01-07T00:20:52;10.35;;;5.38;;
79526;SDS011;68974;47.754;-3.364;2024-01-07T00:23:17;9.32;;;3.47;;
79526;SDS011;68974;47.754;-3.364;2024-01-07T00:25:43;6.95;;;3.92;;
79526;SDS011;68974;47.754;-3.364;2024-01-07T00:28:08;7.03;;;3.10;;
79526;SDS011;68974;47.754;-3.364;2024-01-07T00:30:34;7.88;;;3.53;;
79526;SDS011;68974;47.754;-3.364;2024-01-07T00:33:00;5.50;;;3.45;;
79526;SDS011;68974;47.754;-3.364;2024-01-07T00:35:25;5.93;;;3.28;;
79526;SDS011;68974;47.754;-3.364;2024-01-07T00:37:51;7.65;;;3.80;;
79526;SDS011;68974;47.754;-3.364;2024-01-07T00:40:16;15.52;;;4.18;;
79526;SDS011;68974;47.754;-3.364;2024-01-07T00:42:42;9.23;;;3.45;;
79526;SDS011;68974;47.754;-3.364;2024-01-07T00:45:07;8.48;;;4.13;;
79526;SDS011;68974;47.754;-3.364;2024-01-07T00:47:34;8.73;;;3.70;;
79526;SDS011;68974;47.754;-3.364;2024-01-07T00:49:59;9.18;;;3.25;;
79526;SDS011;68974;47.754;-3.364;2024-01-07T00:52:25;7.13;;;3.85;;
79526;SDS011;68974;47.754;-3.364;2024-01-07T00:54:50;11.88;;;4.15;;
79526;SDS011;68974;47.754;-3.364;2024-01-07T00:57:16;6.47;;;3.08;;
79526;SDS011;68974;47.754;-3.364;2024-01-07T00:59:41;9.88;;;3.60;;
79526;SDS011;68974;47.754;-3.364;2024-01-07T01:02:07;8.38;;;3.97;;
79526;SDS011;68974;47.754;-3.364;2024-01-07T01:04:32;7.03;;;3.42;;
79526;SDS011;68974;47.754;-3.364;2024-01-07T01:06:58;10.98;;;3.92;;
79526;SDS011;68974;47.754;-3.364;2024-01-07T01:09:23;8.55;;;3.67;;
79526;SDS011;68974;47.754;-3.364;2024-01-07T01:11:48;6.85;;;3.30;;
79526;SDS011;68974;47.754;-3.364;2024-01-07T01:14:15;7.07;;;3.47;;
79526;SDS011;68974;47.754;-3.364;2024-01-07T01:16:41;5.18;;;3.42;;
79526;SDS011;68974;47.754;-3.364;2024-01-07T01:19:06;8.02;;;3.25;;
79526;SDS011;68974;47.754;-3.364;2024-01-07T01:21:32;9.32;;;3.22;;
79526;SDS011;68974;47.754;-3.364;2024-01-07T01:23:57;9.93;;;3.25;;
79526;SDS011;68974;47.754;-3.364;2024-01-07T01:26:23;7.40;;;3.60;;
79526;SDS011;68974;47.754;-3.364;2024-01-07T01:28:49;5.90;;;3.55;;
79526;SDS011;68974;47.754;-3.364;2024-01-07T01:31:14;7.13;;;3.65;;
79526;SDS011;68974;47.754;-3.364;2024-01-07T01:33:40;8.88;;;3.58;;
79526;SDS011;68974;47.754;-3.364;2024-01-07T01:36:06;8.60;;;4.15;;
79526;SDS011;68974;47.754;-3.364;2024-01-07T01:38:32;9.07;;;3.78;;
79526;SDS011;68974;47.754;-3.364;2024-01-07T01:40:57;10.80;;;3.40;;
79526;SDS011;68974;47.754;-3.364;2024-01-07T01:43:23;9.02;;;3.95;;
79526;SDS011;68974;47.754;-3.364;2024-01-07T01:45:50;12.48;;;3.97;;
79526;SDS011;68974;47.754;-3.364;2024-01-07T01:48:16;10.32;;;3.72;;
79526;SDS011;68974;47.754;-3.364;2024-01-07T01:50:41;4.82;;;3.28;;
79526;SDS011;68974;47.754;-3.364;2024-01-07T01:53:07;4.95;;;2.97;;
79526;SDS011;68974;47.754;-3.364;2024-01-07T01:55:32;8.65;;;3.40;;
79526;SDS011;68974;47.754;-3.364;2024-01-07T01:57:59;4.55;;;3.10;;
79526;SDS011;68974;47.754;-3.364;2024-01-07T02:00:29;5.63;;;2.92;;
79526;SDS011;68974;47.754;-3.364;2024-01-07T02:02:58;5.85;;;3.50;;
79526;SDS011;68974;47.754;-3.364;2024-01-07T02:05:25;6.25;;;2.88;;
79526;SDS011;68974;47.754;-3.364;2024-01-07T02:07:52;8.43;;;2.92;;
79526;SDS011;68974;47.754;-3.364;2024-01-07T02:10:18;6.80;;;3.03;;
79526;SDS011;68974;47.754;-3.364;2024-01-07T02:12:44;5.53;;;2.60;;
79526;SDS011;68974;47.754;-3.364;2024-01-07T02:15:09;6.53;;;2.40;;
79526;SDS011;68974;47.754;-3.364;2024-01-07T02:17:35;8.73;;;2.90;;
79526;SDS011;68974;47.754;-3.364;2024-01-07T02:20:00;8.68;;;2.83;;
79526;SDS011;68974;47.754;-3.364;2024-01-07T02:22:26;5.53;;;2.63;;
79526;SDS011;68974;47.754;-3.364;2024-01-07T02:24:51;6.15;;;1.75;;
79526;SDS011;68974;47.754;-3.364;2024-01-07T02:27:16;7.43;;;2.33;;
79526;SDS011;68974;47.754;-3.364;2024-01-07T02:29:42;6.97;;;2.38;;
79526;SDS011;68974;47.754;-3.364;2024-01-07T02:32:07;7.47;;;2.67;;
79526;SDS011;68974;47.754;-3.364;2024-01-07T02:34:33;7.55;;;2.35;;
79526;SDS011;68974;47.754;-3.364;2024-01-07T02:36:58;6.85;;;2.92;;
79526;SDS011;68974;47.754;-3.364;2024-01-07T02:39:24;5.65;;;2.40;;
79526;SDS011;68974;47.754;-3.364;2024-01-07T02:41:50;4.97;;;2.65;;
79526;SDS011;68974;47.754;-3.364;2024-01-07T02:44:15;7.97;;;3.00;;
79526;SDS011;68974;47.754;-3.364;2024-01-07T02:46:41;7.68;;;2.55;;
79526;SDS011;68974;47.754;-3.364;2024-01-07T02:49:06;10.25;;;2.83;;
79526;SDS011;68974;47.754;-3.364;2024-01-07T02:51:32;7.68;;;2.78;;
79526;SDS011;68974;47.754;-3.364;2024-01-07T02:53:57;6.28;;;2.20;;
79526;SDS011;68974;47.754;-3.364;2024-01-07T02:56:23;5.75;;;2.85;;
79526;SDS011;68974;47.754;-3.364;2024-01-07T02:58:48;5.22;;;2.80;;
79526;SDS011;68974;47.754;-3.364;2024-01-07T03:01:13;6.57;;;3.05;;
79526;SDS011;68974;47.754;-3.364;2024-01-07T03:03:39;5.68;;;2.88;;
79526;SDS011;68974;47.754;-3.364;2024-01-07T03:06:04;8.57;;;3.53;;
79526;SDS011;68974;47.754;-3.364;2024-01-07T03:08:30;6.82;;;2.90;;
79526;SDS011;68974;47.754;-3.364;2024-01-07T03:10:55;4.10;;;2.40;;
79526;SDS011;68974;47.754;-3.364;2024-01-07T03:13:21;7.80;;;3.67;;
79526;SDS011;68974;47.754;-3.364;2024-01-07T03:15:46;6.32;;;2.58;;
79526;SDS011;68974;47.754;-3.364;2024-01-07T03:18:11;5.45;;;2.63;;
79526;SDS011;68974;47.754;-3.364;2024-01-07T03:20:37;11.45;;;3.10;;
79526;SDS011;68974;47.754;-3.364;2024-01-07T03:23:02;6.93;;;2.38;;
79526;SDS011;68974;47.754;-3.364;2024-01-07T03:25:28;8.05;;;3.00;;
79526;SDS011;68974;47.754;-3.364;2024-01-07T03:27:53;8.93;;;3.28;;
79526;SDS011;68974;47.754;-3.364;2024-01-07T03:30:19;8.25;;;2.60;;
79526;SDS011;68974;47.754;-3.364;2024-01-07T03:32:44;7.20;;;3.17;;
79526;SDS011;68974;47.754;-3.364;2024-01-07T03:35:10;11.77;;;2.72;;
79526;SDS011;68974;47.754;-3.364;2024-01-07T03:37:35;9.43;;;2.63;;
79526;SDS011;68974;47.754;-3.364;2024-01-07T03:40:01;8.65;;;3.22;;
79526;SDS011;68974;47.754;-3.364;2024-01-07T03:42:27;4.35;;;2.83;;
79526;SDS011;68974;47.754;-3.364;2024-01-07T03:44:53;6.47;;;2.78;;
79526;SDS011;68974;47.754;-3.364;2024-01-07T03:47:18;8.23;;;2.35;;
79526;SDS011;68974;47.754;-3.364;2024-01-07T03:49:43;4.95;;;1.73;;
79526;SDS011;68974;47.754;-3.364;2024-01-07T03:52:09;3.90;;;1.60;;
79526;SDS011;68974;47.754;-3.364;2024-01-07T03:54:34;5.70;;;1.77;;
79526;SDS011;68974;47.754;-3.364;2024-01-07T03:57:00;3.78;;;1.58;;
79526;SDS011;68974;47.754;-3.364;2024-01-07T03:59:25;3.10;;;1.85;;
79526;SDS011;68974;47.754;-3.364;2024-01-07T04:01:55;3.67;;;1.67;;
79526;SDS011;68974;47.754;-3.364;2024-01-07T04:04:21;6.30;;;1.58;;
79526;SDS011;68974;47.754;-3.364;2024-01-07T04:06:47;4.68;;;1.63;;
79526;SDS011;68974;47.754;-3.364;2024-01-07T04:09:12;5.97;;;1.95;;
79526;SDS011;68974;47.754;-3.364;2024-01-07T04:11:41;3.67;;;2.50;;
79526;SDS011;68974;47.754;-3.364;2024-01-07T04:14:07;6.32;;;1.60;;
79526;SDS011;68974;47.754;-3.364;2024-01-07T04:16:33;6.20;;;1.73;;
79526;SDS011;68974;47.754;-3.364;2024-01-07T04:18:58;4.03;;;1.42;;
79526;SDS011;68974;47.754;-3.364;2024-01-07T04:21:24;3.88;;;1.55;;
79526;SDS011;68974;47.754;-3.364;2024-01-07T04:23:49;3.30;;;1.85;;
79526;SDS011;68974;47.754;-3.364;2024-01-07T04:26:15;3.67;;;1.70;;
79526;SDS011;68974;47.754;-3.364;2024-01-07T04:28:41;5.25;;;1.70;;
79526;SDS011;68974;47.754;-3.364;2024-01-07T04:31:07;3.25;;;1.60;;
79526;SDS011;68974;47.754;-3.364;2024-01-07T04:33:32;1.95;;;1.58;;
79526;SDS011;68974;47.754;-3.364;2024-01-07T04:35:58;5.20;;;1.92;;
79526;SDS011;68974;47.754;-3.364;2024-01-07T04:38:24;4.40;;;1.75;;
79526;SDS011;68974;47.754;-3.364;2024-01-07T04:40:50;4.40;;;1.75;;
79526;SDS011;68974;47.754;-3.364;2024-01-07T04:43:18;4.63;;;1.75;;
79526;SDS011;68974;47.754;-3.364;2024-01-07T04:45:44;8.38;;;1.75;;
79526;SDS011;68974;47.754;-3.364;2024-01-07T04:48:09;4.03;;;1.33;;
79526;SDS011;68974;47.754;-3.364;2024-01-07T04:50:36;3.58;;;2.10;;
79526;SDS011;68974;47.754;-3.364;2024-01-07T04:53:01;4.95;;;1.88;;
79526;SDS011;68974;47.754;-3.364;2024-01-07T04:55:27;3.78;;;1.50;;
79526;SDS011;68974;47.754;-3.364;2024-01-07T04:57:53;5.90;;;1.90;;
79526;SDS011;68974;47.754;-3.364;2024-01-07T05:00:18;3.22;;;1.40;;
79526;SDS011;68974;47.754;-3.364;2024-01-07T05:02:44;8.95;;;2.35;;
79526;SDS011;68974;47.754;-3.364;2024-01-07T05:05:09;9.15;;;2.13;;
79526;SDS011;68974;47.754;-3.364;2024-01-07T05:07:35;3.28;;;1.90;;
79526;SDS011;68974;47.754;-3.364;2024-01-07T05:10:00;2.67;;;1.73;;
79526;SDS011;68974;47.754;-3.364;2024-01-07T05:12:26;5.68;;;2.30;;
79526;SDS011;68974;47.754;-3.364;2024-01-07T05:14:51;5.63;;;1.85;;
79526;SDS011;68974;47.754;-3.364;2024-01-07T05:17:17;4.65;;;1.73;;
79526;SDS011;68974;47.754;-3.364;2024-01-07T05:19:42;2.10;;;1.33;;
79526;SDS011;68974;47.754;-3.364;2024-01-07T05:22:08;5.88;;;1.77;;
79526;SDS011;68974;47.754;-3.364;2024-01-07T05:24:36;6.13;;;1.98;;
79526;SDS011;68974;47.754;-3.364;2024-01-07T05:27:02;3.13;;;2.10;;
79526;SDS011;68974;47.754;-3.364;2024-01-07T05:29:28;5.47;;;2.10;;
79526;SDS011;68974;47.754;-3.364;2024-01-07T05:31:53;5.30;;;2.22;;
79526;SDS011;68974;47.754;-3.364;2024-01-07T05:34:19;6.18;;;2.58;;
79526;SDS011;68974;47.754;-3.364;2024-01-07T05:36:44;4.30;;;2.00;;
79526;SDS011;68974;47.754;-3.364;2024-01-07T05:39:09;4.85;;;2.22;;
79526;SDS011;68974;47.754;-3.364;2024-01-07T05:41:36;5.90;;;2.20;;
79526;SDS011;68974;47.754;-3.364;2024-01-07T05:44:03;2.58;;;1.95;;
79526;SDS011;68974;47.754;-3.364;2024-01-07T05:46:31;5.28;;;2.15;;
79526;SDS011;68974;47.754;-3.364;2024-01-07T05:48:56;4.13;;;2.17;;
79526;SDS011;68974;47.754;-3.364;2024-01-07T05:51:22;5.28;;;2.33;;
79526;SDS011;68974;47.754;-3.364;2024-01-07T05:53:47;4.78;;;1.83;;
79526;SDS011;68974;47.754;-3.364;2024-01-07T05:56:13;6.75;;;2.08;;
79526;SDS011;68974;47.754;-3.364;2024-01-07T05:58:38;4.15;;;1.70;;
79526;SDS011;68974;47.754;-3.364;2024-01-07T06:01:04;3.08;;;1.60;;
79526;SDS011;68974;47.754;-3.364;2024-01-07T06:03:29;3.33;;;1.55;;
79526;SDS011;68974;47.754;-3.364;2024-01-07T06:05:55;6.18;;;1.73;;
79526;SDS011;68974;47.754;-3.364;2024-01-07T06:08:20;3.03;;;1.67;;
79526;SDS011;68974;47.754;-3.364;2024-01-07T06:10:46;2.63;;;1.17;;
79526;SDS011;68974;47.754;-3.364;2024-01-07T06:13:12;4.32;;;1.77;;
79526;SDS011;68974;47.754;-3.364;2024-01-07T06:15:37;4.78;;;2.03;;
79526;SDS011;68974;47.754;-3.364;2024-01-07T06:18:02;3.25;;;1.75;;
79526;SDS011;68974;47.754;-3.364;2024-01-07T06:20:28;8.20;;;2.30;;
79526;SDS011;68974;47.754;-3.364;2024-01-07T06:22:53;4.35;;;1.58;;
79526;SDS011;68974;47.754;-3.364;2024-01-07T06:25:19;3.83;;;1.90;;
79526;SDS011;68974;47.754;-3.364;2024-01-07T06:27:45;3.95;;;1.48;;
79526;SDS011;68974;47.754;-3.364;2024-01-07T06:30:11;2.65;;;1.70;;
79526;SDS011;68974;47.754;-3.364;2024-01-07T06:32:37;9.45;;;2.03;;
79526;SDS011;68974;47.754;-3.364;2024-01-07T06:35:03;2.28;;;1.52;;
79526;SDS011;68974;47.754;-3.364;2024-01-07T06:37:28;5.53;;;1.67;;
79526;SDS011;68974;47.754;-3.364;2024-01-07T06:39:55;3.17;;;1.88;;
79526;SDS011;68974;47.754;-3.364;2024-01-07T06:42:21;2.65;;;1.75;;
79526;SDS011;68974;47.754;-3.364;2024-01-07T06:44:46;4.93;;;2.10;;
79526;SDS011;68974;47.754;-3.364;2024-01-07T06:47:11;8.25;;;1.85;;
79526;SDS011;68974;47.754;-3.364;2024-01-07T06:49:37;3.38;;;1.90;;
79526;SDS011;68974;47.754;-3.364;2024-01-07T06:52:04;6.10;;;2.03;;
79526;SDS011;68974;47.754;-3.364;2024-01-07T06:54:30;4.70;;;2.30;;
79526;SDS011;68974;47.754;-3.364;2024-01-07T06:56:55;3.92;;;1.35;;
79526;SDS011;68974;47.754;-3.364;2024-01-07T06:59:20;5.78;;;1.83;;
79526;SDS011;68974;47.754;-3.364;2024-01-07T07:01:46;4.75;;;1.92;;
79526;SDS011;68974;47.754;-3.364;2024-01-07T07:04:11;4.90;;;1.70;;
79526;SDS011;68974;47.754;-3.364;2024-01-07T07:06:37;4.55;;;1.40;;
79526;SDS011;68974;47.754;-3.364;2024-01-07T07:09:02;3.17;;;2.00;;
79526;SDS011;68974;47.754;-3.364;2024-01-07T07:11:28;3.58;;;1.48;;
79526;SDS011;68974;47.754;-3.364;2024-01-07T07:13:53;2.80;;;1.70;;
79526;SDS011;68974;47.754;-3.364;2024-01-07T07:16:18;2.65;;;1.77;;
79526;SDS011;68974;47.754;-3.364;2024-01-07T07:18:44;4.20;;;1.92;;
79526;SDS011;68974;47.754;-3.364;2024-01-07T07:21:09;4.75;;;1.88;;
79526;SDS011;68974;47.754;-3.364;2024-01-07T07:23:35;2.45;;;1.50;;
79526;SDS011;68974;47.754;-3.364;2024-01-07T07:26:00;2.72;;;1.50;;
79526;SDS011;68974;47.754;-3.364;2024-01-07T07:28:26;3.67;;;1.70;;
79526;SDS011;68974;47.754;-3.364;2024-01-07T07:30:52;2.88;;;1.40;;
79526;SDS011;68974;47.754;-3.364;2024-01-07T07:33:18;4.82;;;1.70;;
79526;SDS011;68974;47.754;-3.364;2024-01-07T07:35:44;2.75;;;1.75;;
79526;SDS011;68974;47.754;-3.364;2024-01-07T07:38:09;2.60;;;1.65;;
79526;SDS011;68974;47.754;-3.364;2024-01-07T07:40:35;6.25;;;1.90;;
79526;SDS011;68974;47.754;-3.364;2024-01-07T07:43:00;5.35;;;1.95;;
79526;SDS011;68974;47.754;-3.364;2024-01-07T07:45:26;5.68;;;2.03;;
79526;SDS011;68974;47.754;-3.364;2024-01-07T07:47:51;3.60;;;1.90;;
79526;SDS011;68974;47.754;-3.364;2024-01-07T07:50:16;3.67;;;1.70;;
79526;SDS011;68974;47.754;-3.364;2024-01-07T07:52:42;4.38;;;1.80;;
79526;SDS011;68974;47.754;-3.364;2024-01-07T07:55:10;1.92;;;1.70;;
79526;SDS011;68974;47.754;-3.364;2024-01-07T07:57:36;3.70;;;1.80;;
79526;SDS011;68974;47.754;-3.364;2024-01-07T08:00:03;3.53;;;2.20;;
79526;SDS011;68974;47.754;-3.364;2024-01-07T08:02:32;3.65;;;2.92;;
79526;SDS011;68974;47.754;-3.364;2024-01-07T08:04:58;4.78;;;2.40;;
79526;SDS011;68974;47.754;-3.364;2024-01-07T08:07:24;4.63;;;2.58;;
79526;SDS011;68974;47.754;-3.364;2024-01-07T08:09:50;4.05;;;2.20;;
79526;SDS011;68974;47.754;-3.364;2024-01-07T08:12:15;2.72;;;1.63;;
79526;SDS011;68974;47.754;-3.364;2024-01-07T08:14:40;4.45;;;2.38;;
79526;SDS011;68974;47.754;-3.364;2024-01-07T08:17:06;4.38;;;2.50;;
79526;SDS011;68974;47.754;-3.364;2024-01-07T08:19:32;5.47;;;2.22;;
79526;SDS011;68974;47.754;-3.364;2024-01-07T08:21:58;3.83;;;2.03;;
79526;SDS011;68974;47.754;-3.364;2024-01-07T08:24:24;3.75;;;2.15;;
79526;SDS011;68974;47.754;-3.364;2024-01-07T08:26:49;3.83;;;2.00;;
79526;SDS011;68974;47.754;-3.364;2024-01-07T08:29:15;6.60;;;2.25;;
79526;SDS011;68974;47.754;-3.364;2024-01-07T08:31:40;6.47;;;3.00;;
79526;SDS011;68974;47.754;-3.364;2024-01-07T08:34:07;2.70;;;1.80;;
79526;SDS011;68974;47.754;-3.364;2024-01-07T08:36:32;8.13;;;2.30;;
79526;SDS011;68974;47.754;-3.364;2024-01-07T08:38:58;3.08;;;1.85;;
79526;SDS011;68974;47.754;-3.364;2024-01-07T08:41:23;4.35;;;2.13;;
79526;SDS011;68974;47.754;-3.364;2024-01-07T08:43:49;3.45;;;1.98;;
79526;SDS011;68974;47.754;-3.364;2024-01-07T08:46:14;6.35;;;2.70;;
79526;SDS011;68974;47.754;-3.364;2024-01-07T08:48:40;3.45;;;2.25;;
79526;SDS011;68974;47.754;-3.364;2024-01-07T08:51:05;5.22;;;2.20;;
79526;SDS011;68974;47.754;-3.364;2024-01-07T08:53:31;3.80;;;2.13;;
79526;SDS011;68974;47.754;-3.364;2024-01-07T08:55:57;3.95;;;2.47;;
79526;SDS011;68974;47.754;-3.364;2024-01-07T08:58:22;5.97;;;2.40;;
79526;SDS011;68974;47.754;-3.364;2024-01-07T09:00:48;4.35;;;2.67;;
79526;SDS011;68974;47.754;-3.364;2024-01-07T09:03:13;4.10;;;1.90;;
79526;SDS011;68974;47.754;-3.364;2024-01-07T09:05:38;5.80;;;2.00;;
79526;SDS011;68974;47.754;-3.364;2024-01-07T09:08:04;2.85;;;1.88;;
79526;SDS011;68974;47.754;-3.364;2024-01-07T09:10:31;5.78;;;2.28;;
79526;SDS011;68974;47.754;-3.364;2024-01-07T09:12:57;6.35;;;1.75;;
79526;SDS011;68974;47.754;-3.364;2024-01-07T09:15:22;2.78;;;2.10;;
79526;SDS011;68974;47.754;-3.364;2024-01-07T09:17:48;5.72;;;2.20;;
79526;SDS011;68974;47.754;-3.364;2024-01-07T09:20:13;5.82;;;1.85;;
79526;SDS011;68974;47.754;-3.364;2024-01-07T09:22:39;3.05;;;2.38;;
79526;SDS011;68974;47.754;-3.364;2024-01-07T09:25:05;3.05;;;2.05;;
79526;SDS011;68974;47.754;-3.364;2024-01-07T09:27:32;3.08;;;2.30;;
79526;SDS011;68974;47.754;-3.364;2024-01-07T09:29:58;5.78;;;2.30;;
79526;SDS011;68974;47.754;-3.364;2024-01-07T09:32:24;2.38;;;2.13;;
79526;SDS011;68974;47.754;-3.364;2024-01-07T09:34:50;5.68;;;2.47;;
79526;SDS011;68974;47.754;-3.364;2024-01-07T09:37:16;4.68;;;2.50;;
79526;SDS011;68974;47.754;-3.364;2024-01-07T09:39:42;4.75;;;2.25;;
79526;SDS011;68974;47.754;-3.364;2024-01-07T09:42:13;3.63;;;2.20;;
79526;SDS011;68974;47.754;-3.364;2024-01-07T09:44:40;2.28;;;1.70;;
79526;SDS011;68974;47.754;-3.364;2024-01-07T09:47:08;2.35;;;1.55;;
79526;SDS011;68974;47.754;-3.364;2024-01-07T09:49:35;2.97;;;1.70;;
79526;SDS011;68974;47.754;-3.364;2024-01-07T09:52:01;3.67;;;1.85;;
79526;SDS011;68974;47.754;-3.364;2024-01-07T09:54:29;4.13;;;2.78;;
79526;SDS011;68974;47.754;-3.364;2024-01-07T09:56:58;2.75;;;1.88;;
79526;SDS011;68974;47.754;-3.364;2024-01-07T09:59:27;4.10;;;2.00;;
79526;SDS011;68974;47.754;-3.364;2024-01-07T10:04:19;3.33;;;2.17;;
79526;SDS011;68974;47.754;-3.364;2024-01-07T10:06:44;3.08;;;1.90;;
79526;SDS011;68974;47.754;-3.364;2024-01-07T10:09:11;7.43;;;2.13;;
79526;SDS011;68974;47.754;-3.364;2024-01-07T10:11:38;6.22;;;3.10;;
79526;SDS011;68974;47.754;-3.364;2024-01-07T10:14:04;4.45;;;1.98;;
79526;SDS011;68974;47.754;-3.364;2024-01-07T10:16:29;3.08;;;2.33;;
79526;SDS011;68974;47.754;-3.364;2024-01-07T10:18:55;4.72;;;2.33;;
79526;SDS011;68974;47.754;-3.364;2024-01-07T10:21:20;3.20;;;2.05;;
79526;SDS011;68974;47.754;-3.364;2024-01-07T10:23:46;5.93;;;2.65;;
79526;SDS011;68974;47.754;-3.364;2024-01-07T10:26:12;3.78;;;2.80;;
79526;SDS011;68974;47.754;-3.364;2024-01-07T10:28:37;3.60;;;2.03;;
79526;SDS011;68974;47.754;-3.364;2024-01-07T10:31:05;4.65;;;2.50;;
79526;SDS011;68974;47.754;-3.364;2024-01-07T10:33:31;3.00;;;1.90;;
79526;SDS011;68974;47.754;-3.364;2024-01-07T10:36:02;3.47;;;1.85;;
79526;SDS011;68974;47.754;-3.364;2024-01-07T10:38:31;3.08;;;2.05;;
79526;SDS011;68974;47.754;-3.364;2024-01-07T10:40:59;4.32;;;2.97;;
79526;SDS011;68974;47.754;-3.364;2024-01-07T10:43:24;2.53;;;2.03;;
79526;SDS011;68974;47.754;-3.364;2024-01-07T10:45:54;8.15;;;2.38;;
79526;SDS011;68974;47.754;-3.364;2024-01-07T10:48:20;3.80;;;2.20;;
79526;SDS011;68974;47.754;-3.364;2024-01-07T10:50:47;6.97;;;2.20;;
79526;SDS011;68974;47.754;-3.364;2024-01-07T10:53:17;5.80;;;2.20;;
79526;SDS011;68974;47.754;-3.364;2024-01-07T10:55:54;6.53;;;3.67;;
79526;SDS011;68974;47.754;-3.364;2024-01-07T10:58:28;5.43;;;2.53;;
79526;SDS011;68974;47.754;-3.364;2024-01-07T11:00:57;5.13;;;2.70;;
79526;SDS011;68974;47.754;-3.364;2024-01-07T11:03:40;5.03;;;1.95;;
79526;SDS011;68974;47.754;-3.364;2024-01-07T11:12:05;4.75;;;2.30;;
79526;SDS011;68974;47.754;-3.364;2024-01-07T11:17:05;3.13;;;1.70;;
79526;SDS011;68974;47.754;-3.364;2024-01-07T11:19:32;3.45;;;1.80;;
79526;SDS011;68974;47.754;-3.364;2024-01-07T11:22:43;2.58;;;1.77;;
79526;SDS011;68974;47.754;-3.364;2024-01-07T11:24:50;3.30;;;1.60;;
79526;SDS011;68974;47.754;-3.364;2024-01-07T11:27:16;3.55;;;1.80;;
79526;SDS011;68974;47.754;-3.364;2024-01-07T11:29:42;3.58;;;1.58;;
79526;SDS011;68974;47.754;-3.364;2024-01-07T11:32:08;2.33;;;1.45;;
79526;SDS011;68974;47.754;-3.364;2024-01-07T11:34:41;4.07;;;1.65;;
79526;SDS011;68974;47.754;-3.364;2024-01-07T11:37:17;3.80;;;1.63;;
79526;SDS011;68974;47.754;-3.364;2024-01-07T11:39:43;3.70;;;1.70;;
79526;SDS011;68974;47.754;-3.364;2024-01-07T11:42:12;2.78;;;1.38;;
79526;SDS011;68974;47.754;-3.364;2024-01-07T11:44:38;6.57;;;1.83;;
79526;SDS011;68974;47.754;-3.364;2024-01-07T11:47:10;3.95;;;1.70;;
79526;SDS011;68974;47.754;-3.364;2024-01-07T11:49:35;4.20;;;1.58;;
79526;SDS011;68974;47.754;-3.364;2024-01-07T11:52:01;2.92;;;1.73;;
79526;SDS011;68974;47.754;-3.364;2024-01-07T11:54:29;2.90;;;1.58;;
79526;SDS011;68974;47.754;-3.364;2024-01-07T11:56:54;4.57;;;2.00;;
79526;SDS011;68974;47.754;-3.364;2024-01-07T11:59:21;2.53;;;1.65;;
79526;SDS011;68974;47.754;-3.364;2024-01-07T12:01:46;3.00;;;2.10;;
79526;SDS011;68974;47.754;-3.364;2024-01-07T12:04:11;3.38;;;1.75;;
79526;SDS011;68974;47.754;-3.364;2024-01-07T12:06:38;2.38;;;1.60;;
79526;SDS011;68974;47.754;-3.364;2024-01-07T12:11:29;3.28;;;1.60;;
79526;SDS011;68974;47.754;-3.364;2024-01-07T12:13:55;4.28;;;1.40;;
79526;SDS011;68974;47.754;-3.364;2024-01-07T12:16:22;4.70;;;1.58;;
79526;SDS011;68974;47.754;-3.364;2024-01-07T12:18:47;5.05;;;1.40;;
79526;SDS011;68974;47.754;-3.364;2024-01-07T12:21:14;3.10;;;1.52;;
79526;SDS011;68974;47.754;-3.364;2024-01-07T12:23:47;3.22;;;1.30;;
79526;SDS011;68974;47.754;-3.364;2024-01-07T12:26:14;2.47;;;1.40;;
79526;SDS011;68974;47.754;-3.364;2024-01-07T12:28:39;3.03;;;1.60;;
79526;SDS011;68974;47.754;-3.364;2024-01-07T12:31:06;2.08;;;1.20;;
79526;SDS011;68974;47.754;-3.364;2024-01-07T12:33:33;2.92;;;1.40;;
79526;SDS011;68974;47.754;-3.364;2024-01-07T12:35:59;2.70;;;1.40;;
79526;SDS011;68974;47.754;-3.364;2024-01-07T12:38:25;1.98;;;1.35;;
79526;SDS011;68974;47.754;-3.364;2024-01-07T12:40:54;3.70;;;1.30;;
79526;SDS011;68974;47.754;-3.364;2024-01-07T12:43:20;2.25;;;1.42;;
79526;SDS011;68974;47.754;-3.364;2024-01-07T12:45:47;3.90;;;1.27;;
79526;SDS011;68974;47.754;-3.364;2024-01-07T12:48:12;2.35;;;1.38;;
79526;SDS011;68974;47.754;-3.364;2024-01-07T12:50:38;3.30;;;1.42;;
79526;SDS011;68974;47.754;-3.364;2024-01-07T12:53:03;3.75;;;1.40;;
79526;SDS011;68974;47.754;-3.364;2024-01-07T12:55:30;2.30;;;1.30;;
79526;SDS011;68974;47.754;-3.364;2024-01-07T12:57:55;4.18;;;1.50;;
79526;SDS011;68974;47.754;-3.364;2024-01-07T13:00:21;3.10;;;1.40;;
79526;SDS011;68974;47.754;-3.364;2024-01-07T13:02:47;2.47;;;1.50;;
79526;SDS011;68974;47.754;-3.364;2024-01-07T13:05:13;5.18;;;1.42;;
79526;SDS011;68974;47.754;-3.364;2024-01-07T13:07:39;3.10;;;1.20;;
79526;SDS011;68974;47.754;-3.364;2024-01-07T13:10:04;3.47;;;1.67;;
79526;SDS011;68974;47.754;-3.364;2024-01-07T13:12:31;3.45;;;1.45;;
79526;SDS011;68974;47.754;-3.364;2024-01-07T13:14:56;3.33;;;1.33;;
79526;SDS011;68974;47.754;-3.364;2024-01-07T13:17:22;2.13;;;1.60;;
79526;SDS011;68974;47.754;-3.364;2024-01-07T13:19:47;2.63;;;1.67;;
79526;SDS011;68974;47.754;-3.364;2024-01-07T13:22:13;1.85;;;1.20;;
79526;SDS011;68974;47.754;-3.364;2024-01-07T13:24:39;4.30;;;1.30;;
79526;SDS011;68974;47.754;-3.364;2024-01-07T13:27:06;6.85;;;1.38;;
79526;SDS011;68974;47.754;-3.364;2024-01-07T13:29:33;3.10;;;1.48;;
79526;SDS011;68974;47.754;-3.364;2024-01-07T13:31:59;3.55;;;1.40;;
79526;SDS011;68974;47.754;-3.364;2024-01-07T13:34:24;2.38;;;1.75;;
79526;SDS011;68974;47.754;-3.364;2024-01-07T13:36:50;1.85;;;1.10;;
79526;SDS011;68974;47.754;-3.364;2024-01-07T13:39:16;3.15;;;1.27;;
79526;SDS011;68974;47.754;-3.364;2024-01-07T13:41:42;5.18;;;1.40;;
79526;SDS011;68974;47.754;-3.364;2024-01-07T13:44:09;2.95;;;1.13;;
79526;SDS011;68974;47.754;-3.364;2024-01-07T13:46:42;2.60;;;1.05;;
79526;SDS011;68974;47.754;-3.364;2024-01-07T13:49:12;3.10;;;1.40;;
79526;SDS011;68974;47.754;-3.364;2024-01-07T13:51:38;3.75;;;1.55;;
79526;SDS011;68974;47.754;-3.364;2024-01-07T13:54:04;2.72;;;1.30;;
79526;SDS011;68974;47.754;-3.364;2024-01-07T13:56:31;3.05;;;1.25;;
79526;SDS011;68974;47.754;-3.364;2024-01-07T13:58:56;6.63;;;1.67;;
79526;SDS011;68974;47.754;-3.364;2024-01-07T14:01:22;4.30;;;1.23;;
79526;SDS011;68974;47.754;-3.364;2024-01-07T14:03:47;2.20;;;1.70;;
79526;SDS011;68974;47.754;-3.364;2024-01-07T14:06:13;0.90;;;0.70;;
79526;SDS011;68974;47.754;-3.364;2024-01-07T14:08:39;2.42;;;0.90;;
79526;SDS011;68974;47.754;-3.364;2024-01-07T14:11:04;2.72;;;0.90;;
79526;SDS011;68974;47.754;-3.364;2024-01-07T14:13:32;1.92;;;1.00;;
79526;SDS011;68974;47.754;-3.364;2024-01-07T14:15:57;1.13;;;0.70;;
79526;SDS011;68974;47.754;-3.364;2024-01-07T14:18:23;2.25;;;1.10;;
79526;SDS011;68974;47.754;-3.364;2024-01-07T14:20:48;1.92;;;1.40;;
79526;SDS011;68974;47.754;-3.364;2024-01-07T14:23:14;1.83;;;1.00;;
79526;SDS011;68974;47.754;-3.364;2024-01-07T14:25:39;1.15;;;1.02;;
79526;SDS011;68974;47.754;-3.364;2024-01-07T14:28:06;2.70;;;0.85;;
79526;SDS011;68974;47.754;-3.364;2024-01-07T14:30:32;2.47;;;1.00;;
79526;SDS011;68974;47.754;-3.364;2024-01-07T14:32:58;2.55;;;0.90;;
79526;SDS011;68974;47.754;-3.364;2024-01-07T14:35:23;1.50;;;1.00;;
79526;SDS011;68974;47.754;-3.364;2024-01-07T14:37:51;4.65;;;1.05;;
79526;SDS011;68974;47.754;-3.364;2024-01-07T14:40:17;1.70;;;0.85;;